Time;durP1;ratioP1;P1;durP2;ratioP2;P2;SDS_P1;SDS_P2;PMS_P1;PMS_P2;Temp;Humidity;BMP_temperature;BMP_pressure;BME280_temperature;BME280_humidity;BME280_pressure;Samples;Min_cycle;Max_cycle;Signal;HPM_P1;HPM_P2
2023/04/09 00:01:05;;;;;;;;;;;;;;;7.87;80.94;102291.16;107487;1254;125128;-80
2023/04/09 00:03:34;;;;;;;;;;;;;;;7.89;80.76;102290.74;108011;1254;67063;-79
2023/04/09 00:06:01;;;;;;;;;;;;;;;7.87;80.67;102290.28;107805;1254;124983;-79
2023/04/09 00:08:28;;;;;;;;;;;;;;;7.85;80.62;102286.80;107596;1254;61270;-80
2023/04/09 00:10:56;;;;;;;;;;;;;;;7.83;80.56;102281.65;107594;1256;59896;-80
2023/04/09 00:13:23;;;;;;;;;;;;;;;7.83;80.65;102281.95;107776;1254;125187;-80
2023/04/09 00:15:49;;;;;;;;;;;;;;;7.79;80.42;102281.05;107871;1253;65762;-80
2023/04/09 00:18:16;;;;;;;;;;;;;;;7.73;80.41;102281.39;107795;1254;124746;-80
2023/04/09 00:20:43;;;;;;;;;;;;;;;7.71;80.55;102278.83;107831;1254;61199;-81
2023/04/09 00:23:10;;;;;;;;;;;;;;;7.69;80.46;102281.13;108094;1253;61941;-80
2023/04/09 00:25:37;;;;;;;;;;;;;;;7.65;80.39;102279.32;108103;1253;124790;-80
2023/04/09 00:28:04;;;;;;;;;;;;;;;7.61;80.40;102278.39;108210;1254;64787;-80
2023/04/09 00:30:31;;;;;;;;;;;;;;;7.63;80.47;102276.73;108161;1253;125187;-80
2023/04/09 00:32:58;;;;;;;;;;;;;;;7.61;80.42;102272.46;107890;1254;60063;-80
2023/04/09 00:35:25;;;;;;;;;;;;;;;7.64;80.46;102275.23;109062;1253;59840;-80
2023/04/09 00:37:52;;;;;;;;;;;;;;;7.66;80.43;102278.36;108919;1254;125345;-80
2023/04/09 00:40:19;;;;;;;;;;;;;;;7.69;80.47;102279.21;109189;1254;65816;-80
2023/04/09 00:42:46;;;;;;;;;;;;;;;7.75;80.44;102280.48;109140;1254;125399;-80
2023/04/09 00:45:13;;;;;;;;;;;;;;;7.77;80.38;102277.95;108998;1254;60366;-80
2023/04/09 00:47:44;;;;;;;;;;;;;;;7.78;80.35;102278.91;109156;1253;60749;-80
2023/04/09 00:50:11;;;;;;;;;;;;;;;7.78;80.25;102278.52;108828;1254;125292;-80
2023/04/09 00:52:38;;;;;;;;;;;;;;;7.76;80.27;102280.02;109101;1254;66234;-80
2023/04/09 00:55:05;;;;;;;;;;;;;;;7.79;80.44;102282.27;108887;1254;125292;-80
2023/04/09 00:57:32;;;;;;;;;;;;;;;7.85;80.53;102283.67;109188;1253;59544;-80
2023/04/09 00:59:59;;;;;;;;;;;;;;;7.89;80.37;102283.59;108207;1254;125270;-80
2023/04/09 01:02:26;;;;;;;;;;;;;;;7.87;80.16;102282.77;108100;1253;75240;-80
2023/04/09 01:04:53;;;;;;;;;;;;;;;7.84;80.06;102282.20;108288;1257;65773;-80
2023/04/09 01:07:58;;;;;;;;;;;;;;;7.84;80.04;102283.44;108038;1257;124834;-80
2023/04/09 01:10:32;;;;;;;;;;;;;;;7.80;80.00;102286.04;108496;1260;59548;-80
2023/04/09 01:13:19;;;;;;;;;;;;;;;7.83;79.96;102286.34;108446;1262;124630;-80
2023/04/09 01:15:47;;;;;;;;;;;;;;;7.80;79.86;102286.73;108964;1254;73379;-80
2023/04/09 01:18:46;;;;;;;;;;;;;;;7.79;79.71;102286.65;108858;1254;124794;-80
2023/04/09 01:21:14;;;;;;;;;;;;;;;7.75;79.68;102282.41;108521;1260;72492;-80
2023/04/09 01:23:54;;;;;;;;;;;;;;;7.75;79.78;102284.66;108537;1262;58995;-80
2023/04/09 01:26:28;;;;;;;;;;;;;;;7.77;79.68;102289.16;108469;1260;124423;-80
2023/04/09 01:28:55;;;;;;;;;;;;;;;7.81;79.77;102287.48;108526;1266;73410;-79
2023/04/09 01:31:26;;;;;;;;;;;;;;;7.81;79.51;102289.89;108437;1260;124534;-79
2023/04/09 01:33:52;;;;;;;;;;;;;;;7.77;79.34;102289.33;108407;1260;70539;-80
2023/04/09 01:36:19;;;;;;;;;;;;;;;7.71;79.20;102288.92;108426;1261;125011;-80
2023/04/09 01:38:46;;;;;;;;;;;;;;;7.68;79.28;102290.89;108534;1260;61261;-80
2023/04/09 01:41:14;;;;;;;;;;;;;;;7.62;79.05;102297.51;108019;1265;73298;-80
2023/04/09 01:43:41;;;;;;;;;;;;;;;7.51;78.90;102295.42;106675;1265;124117;-79
2023/04/09 01:46:08;;;;;;;;;;;;;;;7.44;79.01;102296.89;107455;1260;72733;-80
2023/04/09 01:48:35;;;;;;;;;;;;;;;7.38;79.05;102299.17;107400;1262;125141;-80
2023/04/09 01:51:02;;;;;;;;;;;;;;;7.32;79.04;102301.60;107291;1260;61365;-80
2023/04/09 01:53:30;;;;;;;;;;;;;;;7.25;79.03;102305.16;107448;1263;74699;-80
2023/04/09 01:56:00;;;;;;;;;;;;;;;7.18;79.08;102303.85;107589;1260;125410;-80
2023/04/09 01:58:27;;;;;;;;;;;;;;;7.09;78.93;102304.85;108099;1253;72711;-80
2023/04/09 02:01:04;;;;;;;;;;;;;;;6.98;79.09;102300.14;107910;1254;125480;-80
2023/04/09 02:03:33;;;;;;;;;;;;;;;6.91;79.16;102302.08;107926;1254;59753;-80
2023/04/09 02:06:11;;;;;;;;;;;;;;;6.88;79.34;102304.84;107723;1259;125066;-80
2023/04/09 02:08:38;;;;;;;;;;;;;;;6.86;79.53;102301.95;107763;1254;66901;-80
2023/04/09 02:11:05;;;;;;;;;;;;;;;6.84;79.51;102300.57;107980;1257;72799;-80
2023/04/09 02:13:33;;;;;;;;;;;;;;;6.84;79.70;102300.39;107968;1254;125060;-79
2023/04/09 02:16:00;;;;;;;;;;;;;;;6.84;79.77;102300.08;107938;1254;59445;-79
2023/04/09 02:18:27;;;;;;;;;;;;;;;6.87;79.89;102301.98;107915;1257;124822;-79
2023/04/09 02:20:55;;;;;;;;;;;;;;;6.90;79.92;102303.42;107835;1254;66070;-79
2023/04/09 02:23:22;;;;;;;;;;;;;;;6.89;79.84;102305.45;107728;1257;71700;-80
2023/04/09 02:25:50;;;;;;;;;;;;;;;6.87;79.80;102309.33;107756;1254;125202;-80
2023/04/09 02:28:17;;;;;;;;;;;;;;;6.84;79.75;102308.26;108799;1254;59524;-80
2023/04/09 02:30:44;;;;;;;;;;;;;;;6.82;79.94;102311.30;108801;1254;124554;-79
2023/04/09 02:33:11;;;;;;;;;;;;;;;6.84;80.09;102313.15;109064;1254;66017;-79
2023/04/09 02:35:38;;;;;;;;;;;;;;;6.87;80.04;102312.62;108970;1254;71491;-79
2023/04/09 02:38:05;;;;;;;;;;;;;;;6.86;79.97;102315.21;109004;1254;124573;-80
2023/04/09 02:40:32;;;;;;;;;;;;;;;6.85;80.01;102316.70;108945;1254;59280;-80
2023/04/09 02:42:58;;;;;;;;;;;;;;;6.86;80.16;102317.86;108863;1254;124552;-80
2023/04/09 02:45:25;;;;;;;;;;;;;;;6.89;80.14;102313.86;109013;1254;67058;-80
2023/04/09 02:47:52;;;;;;;;;;;;;;;6.89;80.10;102311.08;109099;1254;72674;-80
2023/04/09 02:50:19;;;;;;;;;;;;;;;6.89;80.13;102311.73;109003;1254;124555;-81
2023/04/09 02:52:46;;;;;;;;;;;;;;;6.88;80.11;102312.02;109069;1254;60010;-81
2023/04/09 02:55:13;;;;;;;;;;;;;;;6.89;80.13;102308.61;108995;1255;124862;-81
2023/04/09 02:57:40;;;;;;;;;;;;;;;6.87;80.12;102304.48;109129;1254;65732;-81
2023/04/09 03:00:07;;;;;;;;;;;;;;;6.85;80.17;102303.93;108923;1254;125318;-81
2023/04/09 03:02:34;;;;;;;;;;;;;;;6.83;80.22;102304.54;109126;1254;59744;-81
2023/04/09 03:05:01;;;;;;;;;;;;;;;6.84;80.30;102304.59;108985;1256;60115;-81
2023/04/09 03:07:28;;;;;;;;;;;;;;;6.81;80.30;102303.19;108940;1254;124737;-81
2023/04/09 03:09:55;;;;;;;;;;;;;;;6.83;80.51;102297.89;109167;1254;66756;-81
2023/04/09 03:12:22;;;;;;;;;;;;;;;6.86;80.47;102297.92;109002;1254;125995;-81
2023/04/09 03:14:49;;;;;;;;;;;;;;;6.86;80.45;102296.88;108929;1254;59009;-81
2023/04/09 03:17:16;;;;;;;;;;;;;;;6.86;80.52;102296.17;109033;1254;59937;-81
2023/04/09 03:19:43;;;;;;;;;;;;;;;6.86;80.48;102296.53;109037;1254;124618;-81
2023/04/09 03:22:10;;;;;;;;;;;;;;;6.84;80.57;102292.74;109127;1254;67203;-81
2023/04/09 03:24:37;;;;;;;;;;;;;;;6.86;80.67;102289.89;108994;1254;124839;-80
2023/04/09 03:27:04;;;;;;;;;;;;;;;6.89;80.83;102290.14;108437;1258;62149;-80
2023/04/09 03:29:32;;;;;;;;;;;;;;;6.92;80.71;102292.58;108326;1254;59607;-80
2023/04/09 03:31:59;;;;;;;;;;;;;;;6.91;80.75;102292.66;108029;1254;125044;-81
2023/04/09 03:34:26;;;;;;;;;;;;;;;6.91;80.88;102288.16;108258;1254;67549;-80
2023/04/09 03:36:53;;;;;;;;;;;;;;;6.94;80.89;102287.09;108021;1257;124794;-81
2023/04/09 03:39:20;;;;;;;;;;;;;;;6.90;80.72;102285.45;108063;1253;60966;-81
2023/04/09 03:41:47;;;;;;;;;;;;;;;6.85;80.81;102283.56;108197;1254;59793;-81
2023/04/09 03:44:14;;;;;;;;;;;;;;;6.88;81.14;102286.21;107894;1253;125149;-81
2023/04/09 03:46:41;;;;;;;;;;;;;;;6.89;81.09;102289.05;107960;1254;67017;-81
2023/04/09 03:49:08;;;;;;;;;;;;;;;6.93;81.35;102290.90;107604;1253;125080;-81
2023/04/09 03:51:35;;;;;;;;;;;;;;;6.97;81.34;102287.99;107672;1254;59817;-81
2023/04/09 03:54:02;;;;;;;;;;;;;;;6.98;81.31;102284.54;107714;1253;125000;-80
2023/04/09 03:56:29;;;;;;;;;;;;;;;6.98;81.22;102284.59;107685;1256;73485;-81
2023/04/09 03:58:56;;;;;;;;;;;;;;;6.97;81.28;102284.89;107723;1255;64803;-81
2023/04/09 04:01:23;;;;;;;;;;;;;;;6.99;81.43;102280.11;107376;1254;125222;-81
2023/04/09 04:03:50;;;;;;;;;;;;;;;6.99;81.40;102281.30;107789;1254;59623;-81
2023/04/09 04:06:17;;;;;;;;;;;;;;;6.95;81.46;102279.13;107571;1254;124948;-81
2023/04/09 04:08:44;;;;;;;;;;;;;;;6.93;81.55;102281.42;107599;1254;75027;-80
2023/04/09 04:11:11;;;;;;;;;;;;;;;6.94;81.61;102281.50;107703;1254;67080;-81
2023/04/09 04:13:38;;;;;;;;;;;;;;;6.99;81.87;102279.96;107667;1256;124694;-79
2023/04/09 04:16:08;;;;;;;;;;;;;;;7.06;81.89;102281.21;107935;1254;61514;-79
2023/04/09 04:18:35;;;;;;;;;;;;;;;7.13;82.07;102282.72;107866;1254;125546;-79
2023/04/09 04:21:02;;;;;;;;;;;;;;;7.22;82.12;102285.91;107764;1254;73100;-79
2023/04/09 04:23:29;;;;;;;;;;;;;;;7.28;81.92;102290.48;107705;1254;65727;-80
2023/04/09 04:25:56;;;;;;;;;;;;;;;7.30;81.81;102293.26;107726;1254;125108;-79
2023/04/09 04:28:23;;;;;;;;;;;;;;;7.32;81.84;102287.60;107752;1254;62184;-80
2023/04/09 04:30:50;;;;;;;;;;;;;;;7.32;81.69;102288.64;107492;1254;125710;-79
2023/04/09 04:33:17;;;;;;;;;;;;;;;7.32;81.75;102285.32;107577;1254;75195;-79
2023/04/09 04:35:44;;;;;;;;;;;;;;;7.33;81.74;102289.95;107524;1254;66175;-79
2023/04/09 04:38:11;;;;;;;;;;;;;;;7.34;81.73;102284.92;107833;1254;124734;-79
2023/04/09 04:40:38;;;;;;;;;;;;;;;7.35;81.70;102288.00;107852;1254;61146;-79
2023/04/09 04:43:05;;;;;;;;;;;;;;;7.35;81.63;102286.76;107762;1257;124642;-80
2023/04/09 04:45:32;;;;;;;;;;;;;;;7.35;81.65;102285.69;107629;1254;73429;-79
2023/04/09 04:47:59;;;;;;;;;;;;;;;7.32;81.53;102288.49;107560;1254;124832;-79
2023/04/09 04:50:26;;;;;;;;;;;;;;;7.29;81.48;102289.48;108152;1254;73313;-80
2023/04/09 04:52:53;;;;;;;;;;;;;;;7.25;81.55;102290.63;107953;1253;61057;-80
2023/04/09 04:55:20;;;;;;;;;;;;;;;7.27;81.74;102290.08;108140;1254;124675;-80
2023/04/09 04:57:47;;;;;;;;;;;;;;;7.29;81.64;102288.96;108438;1254;73623;-80
2023/04/09 05:00:14;;;;;;;;;;;;;;;7.32;81.83;102286.75;107940;1259;125042;-79
2023/04/09 05:02:41;;;;;;;;;;;;;;;7.36;81.73;102291.70;107815;1254;71394;-79
2023/04/09 05:05:08;;;;;;;;;;;;;;;7.38;81.64;102291.33;107973;1254;60408;-80
2023/04/09 05:07:35;;;;;;;;;;;;;;;7.39;81.53;102292.25;107972;1254;125223;-81
2023/04/09 05:10:02;;;;;;;;;;;;;;;7.42;81.62;102295.36;107977;1254;75180;-81
2023/04/09 05:12:32;;;;;;;;;;;;;;;7.43;81.37;102297.33;107536;1254;125423;-81
2023/04/09 05:14:59;;;;;;;;;;;;;;;7.39;81.28;102297.67;107820;1254;71240;-81
2023/04/09 05:17:26;;;;;;;;;;;;;;;7.42;81.40;102299.02;107746;1257;59472;-81
2023/04/09 05:19:53;;;;;;;;;;;;;;;7.46;81.32;102302.09;107727;1253;124697;-81
2023/04/09 05:22:20;;;;;;;;;;;;;;;7.51;81.26;102299.97;107516;1253;74654;-81
2023/04/09 05:24:47;;;;;;;;;;;;;;;7.48;80.83;102299.44;107524;1254;124953;-79
2023/04/09 05:27:14;;;;;;;;;;;;;;;7.46;80.92;102296.34;107973;1254;72966;-79
2023/04/09 05:29:41;;;;;;;;;;;;;;;7.45;80.68;102296.27;107715;1254;59576;-79
2023/04/09 05:32:08;;;;;;;;;;;;;;;7.44;80.60;102294.09;107571;1257;125033;-79
2023/04/09 05:34:35;;;;;;;;;;;;;;;7.47;80.80;102294.80;107795;1254;73718;-79
2023/04/09 05:37:04;;;;;;;;;;;;;;;7.47;80.57;102294.46;107989;1257;124603;-79
2023/04/09 05:39:31;;;;;;;;;;;;;;;7.53;80.67;102297.27;107753;1254;72733;-79
2023/04/09 05:41:58;;;;;;;;;;;;;;;7.66;80.92;102294.61;107930;1254;59608;-79
2023/04/09 05:44:25;;;;;;;;;;;;;;;7.81;80.79;102291.15;108017;1254;61253;-79
2023/04/09 05:46:52;;;;;;;;;;;;;;;7.94;80.67;102291.61;107600;1254;74185;-79
2023/04/09 05:49:19;;;;;;;;;;;;;;;8.08;80.49;102294.66;107495;1259;125655;-79
2023/04/09 05:51:46;;;;;;;;;;;;;;;8.22;80.20;102296.04;107696;1254;71398;-79
2023/04/09 05:54:13;;;;;;;;;;;;;;;8.32;79.92;102291.20;107343;1254;124373;-79
2023/04/09 05:56:41;;;;;;;;;;;;;;;8.43;79.68;102291.33;107269;1254;61292;-79
2023/04/09 05:59:08;;;;;;;;;;;;;;;8.45;79.14;102293.73;107250;1254;75234;-81
2023/04/09 06:01:35;;;;;;;;;;;;;;;8.51;79.13;102292.01;107607;1254;123893;-81
2023/04/09 06:04:02;;;;;;;;;;;;;;;8.50;78.61;102298.93;107622;1254;72758;-81
2023/04/09 06:06:29;;;;;;;;;;;;;;;8.48;78.56;102298.14;108840;1256;124939;-80
2023/04/09 06:08:56;;;;;;;;;;;;;;;8.51;78.45;102298.85;109208;1254;59591;-81
2023/04/09 06:11:24;;;;;;;;;;;;;;;8.53;78.28;102298.41;109018;1254;74350;-81
2023/04/09 06:13:51;;;;;;;;;;;;;;;8.61;78.38;102300.30;108917;1254;124771;-81
2023/04/09 06:16:18;;;;;;;;;;;;;;;8.70;78.17;102296.43;109195;1254;71406;-81
2023/04/09 06:18:47;;;;;;;;;;;;;;;8.76;77.97;102291.14;109110;1254;125213;-81
2023/04/09 06:21:14;;;;;;;;;;;;;;;8.91;77.82;102290.42;109119;1254;59171;-81
2023/04/09 06:23:41;;;;;;;;;;;;;;;8.99;77.72;102291.58;108082;1256;75075;-81
2023/04/09 06:26:08;;;;;;;;;;;;;;;9.14;77.59;102295.94;108092;1254;123909;-81
2023/04/09 06:28:35;;;;;;;;;;;;;;;9.24;77.35;102296.27;108069;1257;71291;-81
2023/04/09 06:31:02;;;;;;;;;;;;;;;9.41;77.44;102298.98;107905;1254;124871;-81
2023/04/09 06:33:31;;;;;;;;;;;;;;;9.57;77.01;102298.61;107947;1254;61351;-81
2023/04/09 06:35:58;;;;;;;;;;;;;;;9.66;76.70;102297.16;107896;1254;73124;-81
2023/04/09 06:38:27;;;;;;;;;;;;;;;9.84;76.76;102295.47;108499;1254;69428;-81
2023/04/09 06:40:55;;;;;;;;;;;;;;;10.02;76.58;102300.10;108309;1257;73075;-80
2023/04/09 06:43:22;;;;;;;;;;;;;;;10.18;76.28;102299.04;108044;1254;124143;-80
2023/04/09 06:45:49;;;;;;;;;;;;;;;10.32;75.98;102305.55;108145;1252;59550;-81
2023/04/09 06:48:16;;;;;;;;;;;;;;;10.36;75.38;102301.69;107998;1254;125172;-80
2023/04/09 06:50:44;;;;;;;;;;;;;;;10.37;75.29;102303.30;108067;1254;67522;-81
2023/04/09 06:53:11;;;;;;;;;;;;;;;10.48;75.28;102306.16;108016;1254;70132;-81
2023/04/09 06:55:38;;;;;;;;;;;;;;;10.57;75.00;102307.30;108043;1254;125503;-81
2023/04/09 06:58:05;;;;;;;;;;;;;;;10.71;75.10;102312.91;108068;1254;61372;-81
2023/04/09 07:00:32;;;;;;;;;;;;;;;10.78;74.78;102309.75;107923;1254;125172;-80
2023/04/09 07:02:59;;;;;;;;;;;;;;;10.77;74.44;102309.87;107968;1254;67014;-80
2023/04/09 07:05:26;;;;;;;;;;;;;;;10.72;74.23;102314.23;107705;1259;71362;-81
2023/04/09 07:07:54;;;;;;;;;;;;;;;10.71;74.24;102315.38;108868;1254;124274;-80
2023/04/09 07:10:21;;;;;;;;;;;;;;;10.67;74.06;102312.20;109207;1254;60251;-81
2023/04/09 07:12:48;;;;;;;;;;;;;;;10.60;73.85;102317.30;109157;1254;126997;-81
2023/04/09 07:15:15;;;;;;;;;;;;;;;10.48;73.44;102320.19;108012;1253;67572;-81
2023/04/09 07:17:43;;;;;;;;;;;;;;;10.33;73.20;102319.41;107986;1254;72965;-81
2023/04/09 07:20:10;;;;;;;;;;;;;;;10.22;73.20;102322.72;107901;1254;124926;-81
2023/04/09 07:22:47;;;;;;;;;;;;;;;10.11;73.05;102318.98;107848;1254;60115;-81
2023/04/09 07:25:14;;;;;;;;;;;;;;;10.03;72.87;102317.88;107561;1254;124815;-81
2023/04/09 07:27:43;;;;;;;;;;;;;;;9.97;72.83;102318.25;107567;1259;67481;-82
2023/04/09 07:30:10;;;;;;;;;;;;;;;9.97;72.92;102320.17;107544;1254;124594;-79
2023/04/09 07:32:37;;;;;;;;;;;;;;;9.96;72.68;102321.19;107757;1259;61273;-78
2023/04/09 07:35:05;;;;;;;;;;;;;;;9.95;72.72;102320.80;109132;1254;59370;-79
2023/04/09 07:37:35;;;;;;;;;;;;;;;10.00;72.79;102321.77;109058;1254;124250;-79
2023/04/09 07:40:05;;;;;;;;;;;;;;;10.03;72.57;102320.35;108974;1254;67628;-80
2023/04/09 07:42:32;;;;;;;;;;;;;;;10.03;72.38;102316.27;109049;1254;125498;-78
2023/04/09 07:44:59;;;;;;;;;;;;;;;10.03;72.34;102320.15;109134;1259;59909;-78
2023/04/09 07:47:27;;;;;;;;;;;;;;;10.03;72.23;102314.87;108396;1254;60173;-79
2023/04/09 07:49:54;;;;;;;;;;;;;;;10.05;72.25;102313.05;108017;1254;125404;-79
2023/04/09 07:52:21;;;;;;;;;;;;;;;10.04;72.11;102316.87;108359;1254;65554;-79
2023/04/09 07:54:48;;;;;;;;;;;;;;;10.04;72.03;102320.55;107664;1254;125946;-78
2023/04/09 07:57:15;;;;;;;;;;;;;;;10.09;72.02;102321.67;107781;1258;59618;-79
2023/04/09 07:59:45;;;;;;;;;;;;;;;10.17;72.12;102320.85;108947;1254;59756;-80
2023/04/09 08:02:16;;;;;;;;;;;;;;;10.27;72.15;102319.30;108838;1261;125263;-80
2023/04/09 08:04:51;;;;;;;;;;;;;;;10.34;71.99;102315.48;109228;1254;67095;-79
2023/04/09 08:07:19;;;;;;;;;;;;;;;10.44;71.99;102320.69;108886;1254;125248;-79
2023/04/09 08:09:46;;;;;;;;;;;;;;;10.54;71.72;102323.51;109200;1254;59128;-79
2023/04/09 08:12:13;;;;;;;;;;;;;;;10.59;71.25;102320.59;109074;1254;124530;-80
2023/04/09 08:14:40;;;;;;;;;;;;;;;10.64;70.95;102317.67;109216;1253;73252;-80
2023/04/09 08:17:07;;;;;;;;;;;;;;;10.66;70.75;102319.73;109272;1254;65800;-81
2023/04/09 08:19:34;;;;;;;;;;;;;;;10.65;70.37;102320.02;109061;1253;125078;-80
2023/04/09 08:22:02;;;;;;;;;;;;;;;10.68;70.20;102325.41;108908;1254;59358;-80
2023/04/09 08:24:29;;;;;;;;;;;;;;;10.72;69.79;102322.97;108892;1254;124309;-80
2023/04/09 08:26:58;;;;;;;;;;;;;;;10.72;69.68;102321.73;109176;1254;73290;-80
2023/04/09 08:29:25;;;;;;;;;;;;;;;10.77;69.66;102324.98;109264;1254;65840;-79
2023/04/09 08:31:52;;;;;;;;;;;;;;;10.90;69.66;102320.90;108863;1254;124400;-80
2023/04/09 08:34:20;;;;;;;;;;;;;;;11.06;69.33;102322.34;109205;1254;59387;-80
2023/04/09 08:36:48;;;;;;;;;;;;;;;11.23;69.18;102317.73;109025;1254;124847;-80
2023/04/09 08:39:18;;;;;;;;;;;;;;;11.36;68.70;102312.16;109074;1254;73322;-80
2023/04/09 08:41:47;;;;;;;;;;;;;;;11.39;68.34;102318.82;108998;1254;65565;-80
2023/04/09 08:44:14;;;;;;;;;;;;;;;11.30;67.97;102313.13;108919;1254;124496;-80
2023/04/09 08:46:41;;;;;;;;;;;;;;;11.14;67.72;102315.34;109035;1254;60040;-80
2023/04/09 08:49:09;;;;;;;;;;;;;;;11.03;67.81;102320.83;108439;1257;124905;-81
2023/04/09 08:51:36;;;;;;;;;;;;;;;10.98;67.88;102321.83;107709;1253;73371;-82
2023/04/09 08:54:03;;;;;;;;;;;;;;;10.96;67.71;102322.76;107918;1253;67476;-82
2023/04/09 08:56:30;;;;;;;;;;;;;;;10.91;67.73;102322.14;107464;1254;124531;-82
2023/04/09 08:59:00;;;;;;;;;;;;;;;10.97;68.03;102322.11;107486;1254;59977;-82
2023/04/09 09:01:30;;;;;;;;;;;;;;;11.16;68.12;102321.29;107934;1255;124811;-80
2023/04/09 09:04:04;;;;;;;;;;;;;;;11.35;67.95;102320.76;108327;1254;74385;-81
2023/04/09 09:06:40;;;;;;;;;;;;;;;11.47;67.51;102324.81;107954;1254;124925;-79
2023/04/09 09:09:08;;;;;;;;;;;;;;;11.50;67.10;102325.10;108226;1254;72945;-80
2023/04/09 09:11:35;;;;;;;;;;;;;;;11.50;66.86;102325.29;107480;1254;61313;-79
2023/04/09 09:14:03;;;;;;;;;;;;;;;11.49;66.81;102322.45;107470;1259;124808;-79
2023/04/09 09:16:33;;;;;;;;;;;;;;;11.53;66.87;102325.77;107751;1254;75103;-79
2023/04/09 09:19:03;;;;;;;;;;;;;;;11.58;66.87;102327.79;107516;1256;124518;-79
2023/04/09 09:21:30;;;;;;;;;;;;;;;11.63;66.51;102323.83;107505;1259;71091;-80
2023/04/09 09:23:57;;;;;;;;;;;;;;;11.66;66.63;102327.96;107524;1257;62182;-79
2023/04/09 09:26:26;;;;;;;;;;;;;;;11.67;66.37;102327.14;107381;1261;124566;-79
2023/04/09 09:28:53;;;;;;;;;;;;;;;11.69;66.12;102333.91;107477;1259;74743;-79
2023/04/09 09:31:20;;;;;;;;;;;;;;;11.73;65.60;102335.17;107365;1254;124384;-79
2023/04/09 09:33:47;;;;;;;;;;;;;;;11.79;65.63;102326.82;107456;1255;71074;-79
2023/04/09 09:36:17;;;;;;;;;;;;;;;11.81;65.33;102325.15;107779;1257;125311;-79
2023/04/09 09:38:55;;;;;;;;;;;;;;;11.83;65.41;102328.39;107815;1254;59594;-79
2023/04/09 09:41:23;;;;;;;;;;;;;;;11.91;65.50;102324.90;107513;1255;239718;-79
2023/04/09 09:43:50;;;;;;;;;;;;;;;12.10;65.43;102323.80;107746;1255;125010;-79
2023/04/09 09:46:17;;;;;;;;;;;;;;;12.25;65.19;102329.38;107848;1254;73204;-79
2023/04/09 09:48:45;;;;;;;;;;;;;;;12.26;64.49;102327.52;107748;1255;125578;-79
2023/04/09 09:51:12;;;;;;;;;;;;;;;12.18;64.31;102324.15;107451;1259;61441;-79
2023/04/09 09:53:43;;;;;;;;;;;;;;;12.14;64.30;102332.05;107270;1259;73484;-79
2023/04/09 09:56:13;;;;;;;;;;;;;;;12.08;64.12;102328.84;107415;1254;124983;-79
2023/04/09 09:58:44;;;;;;;;;;;;;;;12.01;63.87;102329.74;107637;1257;71612;-82
2023/04/09 10:01:12;;;;;;;;;;;;;;;12.01;64.23;102325.36;107402;1256;124257;-82
2023/04/09 10:03:39;;;;;;;;;;;;;;;11.97;64.05;102324.86;107724;1256;59979;-83
2023/04/09 10:06:06;;;;;;;;;;;;;;;11.91;63.92;102321.52;108195;1255;74510;-80
2023/04/09 10:08:36;;;;;;;;;;;;;;;11.80;63.53;102324.55;107480;1256;124544;-80
2023/04/09 10:11:04;;;;;;;;;;;;;;;11.68;63.78;102321.08;107588;1259;71168;-79
2023/04/09 10:13:36;;;;;;;;;;;;;;;11.66;63.84;102326.38;107359;1254;124602;-79
2023/04/09 10:16:03;;;;;;;;;;;;;;;11.55;63.38;102323.59;107464;1256;61489;-81
2023/04/09 10:18:33;;;;;;;;;;;;;;;11.40;63.47;102322.41;107428;1256;124278;-80
2023/04/09 10:21:02;;;;;;;;;;;;;;;11.39;63.72;102330.06;107646;1254;67010;-82
2023/04/09 10:23:33;;;;;;;;;;;;;;;11.34;63.78;102324.58;107888;1257;73151;-79
2023/04/09 10:26:00;;;;;;;;;;;;;;;11.37;63.74;102326.98;107678;1257;124167;-81
2023/04/09 10:28:27;;;;;;;;;;;;;;;11.26;63.51;102329.27;108015;1254;59583;-81
2023/04/09 10:30:54;;;;;;;;;;;;;;;11.14;63.52;102328.89;107552;1259;124822;-81
2023/04/09 10:33:25;;;;;;;;;;;;;;;11.08;63.53;102330.54;107909;1259;65711;-79
2023/04/09 10:35:58;;;;;;;;;;;;;;;11.06;63.46;102337.13;108241;1255;72909;-79
2023/04/09 10:38:32;;;;;;;;;;;;;;;10.99;63.33;102332.90;107915;1254;124946;-79
2023/04/09 10:40:59;;;;;;;;;;;;;;;10.94;63.46;102334.05;108136;1254;61199;-79
2023/04/09 10:43:26;;;;;;;;;;;;;;;10.98;63.52;102333.21;108839;1254;124566;-79
2023/04/09 10:45:56;;;;;;;;;;;;;;;11.00;63.48;102333.30;109053;1253;67259;-79
2023/04/09 10:48:25;;;;;;;;;;;;;;;11.08;63.37;102338.26;108789;1254;125103;-79
2023/04/09 10:50:52;;;;;;;;;;;;;;;11.06;63.14;102336.09;109237;1254;60143;-79
2023/04/09 10:53:23;;;;;;;;;;;;;;;11.04;63.10;102334.40;108618;1259;60203;-79
2023/04/09 10:55:51;;;;;;;;;;;;;;;11.04;63.23;102332.80;107552;1258;124305;-81
2023/04/09 10:58:18;;;;;;;;;;;;;;;11.09;63.20;102333.04;107499;1254;65892;-81
2023/04/09 11:00:47;;;;;;;;;;;;;;;11.08;62.99;102333.88;107321;1259;125122;-82
2023/04/09 11:03:47;;;;;;;;;;;;;;;11.01;62.63;102340.73;107888;1254;61211;-84
2023/04/09 11:06:15;;;;;;;;;;;;;;;10.87;62.50;102339.38;107672;1254;62165;-82
2023/04/09 11:08:43;;;;;;;;;;;;;;;10.83;62.48;102337.73;107706;1256;75380;-81
2023/04/09 11:11:11;;;;;;;;;;;;;;;10.81;62.14;102340.11;107597;1259;64600;-81
2023/04/09 11:13:40;;;;;;;;;;;;;;;10.81;62.47;102338.54;107421;1254;124420;-81
2023/04/09 11:16:07;;;;;;;;;;;;;;;10.82;62.15;102339.80;107542;1258;59392;-82
2023/04/09 11:18:35;;;;;;;;;;;;;;;10.80;62.24;102340.58;106978;1254;124384;-81
2023/04/09 11:21:03;;;;;;;;;;;;;;;10.80;62.02;102341.11;107414;1254;73908;-82
2023/04/09 11:23:30;;;;;;;;;;;;;;;10.84;62.24;102340.95;107709;1260;67060;-82
2023/04/09 11:25:57;;;;;;;;;;;;;;;10.93;62.13;102344.38;107968;1259;124155;-81
2023/04/09 11:28:24;;;;;;;;;;;;;;;10.97;61.77;102344.08;107965;1254;59244;-82
2023/04/09 11:30:51;;;;;;;;;;;;;;;10.92;61.52;102348.91;107398;1260;124269;-82
2023/04/09 11:33:19;;;;;;;;;;;;;;;10.88;61.45;102341.88;108889;1254;73358;-82
2023/04/09 11:35:46;;;;;;;;;;;;;;;10.88;61.04;102342.23;107881;1254;67315;-81
2023/04/09 11:38:13;;;;;;;;;;;;;;;10.91;61.30;102340.80;107967;1254;124718;-82
2023/04/09 11:40:46;;;;;;;;;;;;;;;10.99;61.32;102341.66;107933;1254;59843;-80
2023/04/09 11:43:15;;;;;;;;;;;;;;;11.01;61.16;102340.23;107728;1258;124660;-82
2023/04/09 11:45:42;;;;;;;;;;;;;;;11.06;60.78;102347.33;107537;1254;74451;-80
2023/04/09 11:48:10;;;;;;;;;;;;;;;11.03;60.65;102345.59;107539;1261;66144;-78
2023/04/09 11:50:37;;;;;;;;;;;;;;;11.03;60.61;102344.88;107860;1256;124609;-80
2023/04/09 11:53:19;;;;;;;;;;;;;;;11.06;60.60;102345.40;108111;1256;59911;-79
2023/04/09 11:55:48;;;;;;;;;;;;;;;11.15;60.53;102344.74;108046;1256;125247;-79
2023/04/09 11:58:15;;;;;;;;;;;;;;;11.25;60.36;102342.97;107990;1261;73416;-79
2023/04/09 12:00:42;;;;;;;;;;;;;;;11.34;60.26;102340.73;107738;1259;124209;-79
2023/04/09 12:03:10;;;;;;;;;;;;;;;11.34;59.92;102340.05;107935;1258;72010;-80
2023/04/09 12:05:37;;;;;;;;;;;;;;;11.23;59.73;102337.41;107666;1256;60702;-79
2023/04/09 12:08:06;;;;;;;;;;;;;;;11.25;59.93;102333.48;107260;1260;125278;-80
2023/04/09 12:10:37;;;;;;;;;;;;;;;11.27;59.78;102336.19;107560;1255;74357;-79
2023/04/09 12:13:10;;;;;;;;;;;;;;;11.27;59.67;102338.68;107746;1255;124450;-80
2023/04/09 12:15:37;;;;;;;;;;;;;;;11.29;59.59;102338.77;107709;1254;71167;-80
2023/04/09 12:18:08;;;;;;;;;;;;;;;11.37;59.54;102339.48;108406;1259;59689;-80
2023/04/09 12:20:38;;;;;;;;;;;;;;;11.48;59.77;102333.64;107499;1254;123893;-79
2023/04/09 12:23:05;;;;;;;;;;;;;;;11.60;59.72;102334.04;107926;1254;75122;-79
2023/04/09 12:25:34;;;;;;;;;;;;;;;11.60;58.91;102333.83;107685;1257;124115;-79
2023/04/09 12:28:02;;;;;;;;;;;;;;;11.51;58.92;102333.25;107429;1260;71265;-79
2023/04/09 12:30:29;;;;;;;;;;;;;;;11.51;59.09;102332.94;107646;1255;124308;-79
2023/04/09 12:32:56;;;;;;;;;;;;;;;11.53;58.99;102338.45;107752;1254;61205;-80